createdAt,value
2019-04-03T00:05:04.477Z,22.6
2019-04-03T00:20:03.148Z,22.6
2019-04-03T00:35:03.461Z,22.6
2019-04-03T00:50:04.587Z,22.6
2019-04-03T01:05:04.098Z,22.6
2019-04-03T01:20:04.519Z,22.5
2019-04-03T01:35:04.870Z,22.4
2019-04-03T01:50:03.225Z,22.3
2019-04-03T02:05:03.031Z,22.3
2019-04-03T02:20:02.887Z,22.3
2019-04-03T02:35:06.384Z,22.3
2019-04-03T02:50:03.935Z,22.3
2019-04-03T03:05:03.356Z,22.3
2019-04-03T03:20:06.271Z,22.3
2019-04-03T03:35:11.485Z,22.3
2019-04-03T03:50:03.298Z,22.3
2019-04-03T04:05:03.730Z,22.4
2019-04-03T04:20:06.270Z,22.4
2019-04-03T04:35:04.751Z,22.4
2019-04-03T04:50:05.804Z,22.4
2019-04-03T05:05:04.579Z,22.5
2019-04-03T05:20:04.179Z,22.5
2019-04-03T05:35:03.684Z,22.6
2019-04-03T05:50:04.060Z,22.6
2019-04-03T06:05:06.034Z,22.7
2019-04-03T06:20:03.380Z,22.8
2019-04-03T06:35:03.639Z,22.9
2019-04-03T06:50:04.707Z,23.1
2019-04-03T07:05:05.516Z,23.2
2019-04-03T07:20:13.177Z,23.4
2019-04-03T07:35:07.554Z,23.5
2019-04-03T07:50:03.786Z,23.7
2019-04-03T08:05:03.624Z,23.8
2019-04-03T08:20:05.419Z,24
2019-04-03T08:35:04.495Z,24.1
2019-04-03T08:50:05.107Z,24.3
2019-04-03T09:05:03.519Z,24.3
2019-04-03T09:20:05.524Z,24.5
2019-04-03T09:35:04.062Z,24.5
2019-04-03T09:50:03.689Z,24.7
2019-04-03T10:05:03.506Z,24.7
2019-04-03T10:20:04.703Z,24.8
2019-04-03T10:35:08.136Z,24.8
2019-04-03T10:50:04.555Z,24.8
2019-04-03T11:05:06.102Z,24.8
2019-04-03T11:20:03.359Z,24.8
2019-04-03T11:35:04.547Z,24.8
2019-04-03T11:50:04.806Z,24.8
2019-04-03T12:05:02.995Z,24.8
2019-04-03T12:20:03.187Z,24.8
2019-04-03T12:35:05.037Z,24.8
2019-04-03T12:50:04.250Z,24.8
2019-04-03T13:05:06.102Z,24.8
2019-04-03T13:20:06.585Z,24.8
2019-04-03T13:35:05.923Z,24.8
2019-04-03T14:05:05.823Z,24.8
